Time;durP1;ratioP1;P1;durP2;ratioP2;P2;SDS_P1;SDS_P2;PMS_P1;PMS_P2;Temp;Humidity;BMP_temperature;BMP_pressure;BME280_temperature;BME280_humidity;BME280_pressure;Samples;Min_cycle;Max_cycle;Signal;HPM_P1;HPM_P2
2021/03/07 00:01:39;;;;;;;26.98;17.95;;;7.40;99.90;;;;;;5032397;28;20064;-73
2021/03/07 00:04:05;;;;;;;29.08;17.77;;;7.30;99.90;;;;;;5032330;28;20072;-73
2021/03/07 00:06:31;;;;;;;27.27;16.98;;;7.40;99.90;;;;;;5032488;28;20488;-73
2021/03/07 00:08:59;;;;;;;25.13;17.48;;;7.40;99.90;;;;;;5032439;28;20052;-73
2021/03/07 00:11:25;;;;;;;22.65;16.25;;;7.30;99.90;;;;;;5032735;28;20048;-73
2021/03/07 00:13:51;;;;;;;24.00;15.50;;;7.30;99.90;;;;;;5014938;28;20049;-73
2021/03/07 00:16:17;;;;;;;23.10;15.32;;;7.40;99.90;;;;;;5032381;28;20038;-73
2021/03/07 00:18:42;;;;;;;21.50;15.45;;;7.40;99.90;;;;;;5032705;28;20045;-73
2021/03/07 00:21:08;;;;;;;25.95;16.42;;;7.30;99.90;;;;;;5032477;28;20075;-73
2021/03/07 00:23:34;;;;;;;24.77;16.80;;;7.30;99.90;;;;;;5032327;28;20497;-73
2021/03/07 00:26:00;;;;;;;22.30;15.77;;;7.40;99.90;;;;;;5032331;28;20034;-73
2021/03/07 00:28:26;;;;;;;25.98;16.15;;;7.40;99.90;;;;;;5032412;28;20049;-73
2021/03/07 00:30:51;;;;;;;22.10;14.80;;;7.40;99.90;;;;;;5032475;28;20124;-73
2021/03/07 00:33:17;;;;;;;22.35;14.35;;;7.50;99.90;;;;;;5014670;28;20064;-73
2021/03/07 00:35:43;;;;;;;24.13;16.13;;;7.40;99.90;;;;;;5032404;28;20500;-73
2021/03/07 00:38:09;;;;;;;24.83;15.52;;;7.50;99.90;;;;;;5032153;28;20091;-73
2021/03/07 00:40:35;;;;;;;22.13;15.63;;;7.50;99.90;;;;;;5014537;28;20037;-73
2021/03/07 00:43:01;;;;;;;21.98;15.40;;;7.50;99.90;;;;;;5031811;28;20037;-73
2021/03/07 00:45:26;;;;;;;22.67;15.43;;;7.50;99.90;;;;;;5032061;28;20508;-73
2021/03/07 00:47:52;;;;;;;20.60;15.02;;;7.50;99.90;;;;;;5032054;28;20045;-73
2021/03/07 00:50:25;;;;;;;22.10;15.75;;;7.40;99.90;;;;;;5035268;28;20037;-73
2021/03/07 00:52:52;;;;;;;26.52;16.15;;;7.50;99.90;;;;;;5036481;28;20045;-73
2021/03/07 00:55:18;;;;;;;26.25;16.98;;;7.50;99.90;;;;;;5036405;28;20120;-73
2021/03/07 00:57:43;;;;;;;22.70;15.07;;;7.50;99.90;;;;;;5035861;28;20287;-73
2021/03/07 01:00:13;;;;;;;23.33;16.40;;;7.60;99.90;;;;;;5018425;28;20049;-73
2021/03/07 01:02:38;;;;;;;22.60;14.98;;;7.50;99.90;;;;;;5035872;28;20098;-73
2021/03/07 01:05:06;;;;;;;23.05;14.80;;;7.50;99.90;;;;;;5035882;28;20042;-73
2021/03/07 01:07:32;;;;;;;23.30;14.10;;;7.50;99.90;;;;;;5035827;28;20045;-73
2021/03/07 01:09:58;;;;;;;21.55;14.40;;;7.50;99.90;;;;;;5035578;28;20064;-73
2021/03/07 01:12:24;;;;;;;20.92;15.65;;;7.40;99.90;;;;;;5035707;28;20511;-73
2021/03/07 01:14:50;;;;;;;23.25;15.88;;;7.40;99.90;;;;;;5035762;28;20044;-73
2021/03/07 01:17:16;;;;;;;25.10;16.20;;;7.40;99.90;;;;;;5035815;28;20512;-73
2021/03/07 01:19:42;;;;;;;27.63;16.92;;;7.30;99.90;;;;;;5035273;28;20056;-73
2021/03/07 01:22:08;;;;;;;26.40;17.52;;;7.30;99.90;;;;;;5017743;28;20587;-73
2021/03/07 01:24:35;;;;;;;27.08;17.35;;;7.30;99.90;;;;;;5035403;28;20037;-73
2021/03/07 01:27:01;;;;;;;25.83;17.83;;;7.20;99.90;;;;;;5035456;28;20044;-73
2021/03/07 01:29:27;;;;;;;25.73;17.58;;;7.30;99.90;;;;;;5035010;28;20041;-73
2021/03/07 01:31:53;;;;;;;24.75;16.73;;;7.30;99.90;;;;;;5035398;28;20042;-73
2021/03/07 01:34:18;;;;;;;27.88;16.98;;;7.30;99.90;;;;;;5035072;28;20050;-73
2021/03/07 01:36:44;;;;;;;25.65;17.00;;;7.30;99.90;;;;;;5035304;28;20492;-73
2021/03/07 01:39:10;;;;;;;25.08;17.10;;;7.30;99.90;;;;;;5035258;28;20041;-73
2021/03/07 01:41:36;;;;;;;25.30;16.05;;;7.20;99.90;;;;;;5035256;28;20520;-73
2021/03/07 01:44:02;;;;;;;24.95;17.27;;;7.30;99.90;;;;;;5034767;28;20053;-73
2021/03/07 01:46:28;;;;;;;25.40;17.08;;;7.20;99.90;;;;;;5035151;28;20160;-73
2021/03/07 01:48:55;;;;;;;22.52;15.43;;;7.20;99.90;;;;;;5035219;28;20048;-73
2021/03/07 01:51:21;;;;;;;21.95;15.25;;;7.20;99.90;;;;;;5033794;28;20385;-73
2021/03/07 01:53:48;;;;;;;25.17;14.57;;;7.20;99.90;;;;;;5017376;28;20041;-73
2021/03/07 01:56:15;;;;;;;20.50;15.45;;;7.20;99.90;;;;;;5017252;28;20080;-73
2021/03/07 01:58:42;;;;;;;23.33;15.13;;;7.10;99.90;;;;;;5034623;28;20080;-73
2021/03/07 02:01:08;;;;;;;26.15;15.85;;;7.20;99.90;;;;;;5034387;28;20128;-73
2021/03/07 02:03:34;;;;;;;23.52;15.93;;;7.10;99.90;;;;;;5034798;28;20124;-73
2021/03/07 02:06:00;;;;;;;22.88;16.38;;;7.10;99.90;;;;;;5034727;28;20040;-73
2021/03/07 02:08:26;;;;;;;25.02;16.70;;;7.20;99.90;;;;;;5034256;28;20064;-73
2021/03/07 02:10:59;;;;;;;26.75;15.65;;;7.20;99.90;;;;;;5034403;28;20045;-73
2021/03/07 02:13:32;;;;;;;22.48;16.40;;;7.20;99.90;;;;;;5034288;28;20068;-73
2021/03/07 02:16:02;;;;;;;25.77;16.63;;;7.20;99.90;;;;;;5034744;28;20037;-73
2021/03/07 02:18:31;;;;;;;22.88;15.85;;;7.30;99.90;;;;;;5034427;28;20041;-73
2021/03/07 02:21:02;;;;;;;23.98;15.77;;;7.20;99.90;;;;;;5034188;28;20520;-73
2021/03/07 02:23:35;;;;;;;21.38;14.70;;;7.30;99.90;;;;;;5034302;28;20037;-73
2021/03/07 02:26:03;;;;;;;25.88;16.70;;;7.30;99.90;;;;;;5034162;28;20132;-73
2021/03/07 02:28:29;;;;;;;24.85;16.25;;;7.30;99.90;;;;;;5034351;28;20049;-73
2021/03/07 02:30:56;;;;;;;24.08;17.17;;;7.40;99.90;;;;;;5033997;28;20088;-73
2021/03/07 02:33:32;;;;;;;24.98;16.20;;;7.40;99.90;;;;;;5033993;28;20118;-73
2021/03/07 02:36:15;;;;;;;27.73;18.02;;;7.40;99.90;;;;;;5033993;28;20041;-73
2021/03/07 02:38:46;;;;;;;30.08;16.65;;;7.40;99.90;;;;;;5033987;28;20037;-73
2021/03/07 02:41:16;;;;;;;23.30;16.30;;;7.50;99.90;;;;;;5034086;28;20045;-73
2021/03/07 02:43:46;;;;;;;26.02;16.38;;;7.50;99.90;;;;;;5033938;28;20034;-73
2021/03/07 02:46:14;;;;;;;22.35;16.60;;;7.60;99.90;;;;;;5016307;28;20132;-73
2021/03/07 02:48:44;;;;;;;24.75;16.25;;;7.60;99.90;;;;;;5033820;28;20041;-73
2021/03/07 02:51:11;;;;;;;24.15;15.23;;;7.50;99.90;;;;;;5033746;28;20124;-73
2021/03/07 02:53:39;;;;;;;20.08;15.02;;;7.60;99.90;;;;;;5033965;28;20072;-73
2021/03/07 02:56:08;;;;;;;23.85;16.15;;;7.50;99.90;;;;;;5033903;28;20572;-73
2021/03/07 02:58:37;;;;;;;24.25;15.98;;;7.50;99.90;;;;;;5033778;28;20111;-73
2021/03/07 03:01:07;;;;;;;23.17;16.15;;;7.40;99.90;;;;;;5033432;28;20045;-73
2021/03/07 03:03:37;;;;;;;24.83;16.25;;;7.50;99.90;;;;;;5015658;28;20071;-73
2021/03/07 03:06:04;;;;;;;23.25;16.10;;;7.60;99.90;;;;;;5032295;28;20080;-73
2021/03/07 03:08:32;;;;;;;27.08;16.98;;;7.70;99.90;;;;;;5033123;28;20057;-73
2021/03/07 03:11:00;;;;;;;26.05;16.75;;;7.70;99.90;;;;;;5033251;28;20550;-73
2021/03/07 03:13:27;;;;;;;25.23;16.27;;;7.70;99.90;;;;;;5032756;28;20045;-73
2021/03/07 03:15:55;;;;;;;24.20;16.05;;;7.70;99.90;;;;;;5033206;28;20041;-73
2021/03/07 03:18:22;;;;;;;20.52;15.27;;;7.70;99.90;;;;;;5034221;28;20041;-73
2021/03/07 03:20:51;;;;;;;23.95;15.57;;;7.70;99.90;;;;;;5034681;28;20046;-73
2021/03/07 03:23:18;;;;;;;21.92;15.20;;;7.70;99.90;;;;;;5034378;28;20515;-73
2021/03/07 03:25:47;;;;;;;25.42;15.90;;;7.70;99.90;;;;;;5034373;28;20099;-73
2021/03/07 03:28:14;;;;;;;21.60;16.17;;;7.80;99.90;;;;;;5034275;28;20061;-73
2021/03/07 03:30:40;;;;;;;20.08;15.52;;;7.60;99.90;;;;;;5034568;28;20044;-73
2021/03/07 03:33:06;;;;;;;25.73;16.35;;;7.60;99.90;;;;;;5016754;28;20042;-73
2021/03/07 03:35:31;;;;;;;25.60;16.63;;;7.60;99.90;;;;;;5034447;28;20048;-73
2021/03/07 03:37:57;;;;;;;23.00;15.88;;;7.70;99.90;;;;;;5034503;28;20381;-73
2021/03/07 03:40:26;;;;;;;22.90;16.17;;;7.80;99.90;;;;;;5034092;28;20066;-73
2021/03/07 03:43:06;;;;;;;23.05;15.70;;;7.80;99.90;;;;;;5033974;28;20084;-73
2021/03/07 03:45:35;;;;;;;22.48;15.05;;;7.80;99.90;;;;;;5034130;28;20049;-73
2021/03/07 03:48:05;;;;;;;19.95;15.55;;;7.70;99.90;;;;;;5015941;28;20033;-73
2021/03/07 03:50:31;;;;;;;22.38;15.43;;;7.70;99.90;;;;;;5016629;28;20044;-73
2021/03/07 03:53:01;;;;;;;21.35;15.02;;;7.70;99.90;;;;;;5033955;28;20041;-73
2021/03/07 03:55:29;;;;;;;24.35;16.17;;;7.60;99.90;;;;;;5034157;28;20041;-73
2021/03/07 03:58:03;;;;;;;22.73;15.68;;;7.60;99.90;;;;;;5034045;28;20099;-73
2021/03/07 04:00:33;;;;;;;29.85;16.13;;;7.60;99.90;;;;;;5034023;28;20084;-73
2021/03/07 04:03:00;;;;;;;20.67;14.98;;;7.60;99.90;;;;;;5034107;28;20052;-73
2021/03/07 04:05:28;;;;;;;20.58;16.08;;;7.70;99.90;;;;;;5033603;28;20037;-73
2021/03/07 04:07:54;;;;;;;23.55;15.52;;;7.80;99.90;;;;;;5033410;28;20049;-74
2021/03/07 04:10:22;;;;;;;25.60;16.15;;;7.80;99.90;;;;;;5033736;28;20044;-73
2021/03/07 04:12:54;;;;;;;25.58;17.00;;;7.80;99.90;;;;;;5033413;28;20111;-73
2021/03/07 04:15:21;;;;;;;25.85;16.42;;;7.80;99.90;;;;;;5033788;28;20072;-73
2021/03/07 04:17:50;;;;;;;25.25;16.98;;;7.80;99.90;;;;;;5033767;28;20558;-73
2021/03/07 04:20:17;;;;;;;23.52;16.58;;;7.80;99.90;;;;;;5033692;28;20042;-73
2021/03/07 04:22:43;;;;;;;26.73;17.08;;;7.80;99.90;;;;;;5033358;28;20041;-73
2021/03/07 04:25:10;;;;;;;22.65;16.30;;;7.80;99.90;;;;;;5032610;28;20086;-73
2021/03/07 04:27:36;;;;;;;27.42;16.73;;;7.80;99.90;;;;;;5033520;28;20556;-73
2021/03/07 04:30:07;;;;;;;26.65;16.30;;;7.80;99.90;;;;;;5033571;28;20053;-73
2021/03/07 04:32:33;;;;;;;24.50;16.38;;;7.80;99.90;;;;;;5033591;28;20132;-73
2021/03/07 04:35:01;;;;;;;21.38;16.20;;;7.80;99.90;;;;;;5033555;28;20033;-73
2021/03/07 04:37:27;;;;;;;24.88;16.63;;;7.90;99.90;;;;;;5033622;28;20041;-73
2021/03/07 04:39:53;;;;;;;24.63;17.45;;;7.90;99.90;;;;;;5033142;28;20049;-73
2021/03/07 04:42:19;;;;;;;27.17;17.98;;;7.80;99.90;;;;;;5033285;28;20040;-73
2021/03/07 04:44:46;;;;;;;25.45;17.00;;;7.80;99.90;;;;;;5033112;28;20065;-73
2021/03/07 04:47:12;;;;;;;29.15;17.80;;;7.80;99.90;;;;;;5015756;28;20060;-73
2021/03/07 04:49:38;;;;;;;26.20;17.95;;;7.90;99.90;;;;;;5033479;28;20041;-73
2021/03/07 04:52:04;;;;;;;27.13;17.25;;;7.90;99.90;;;;;;5033125;28;20121;-73
2021/03/07 04:54:29;;;;;;;28.55;18.48;;;7.90;99.90;;;;;;5033141;28;20033;-73
2021/03/07 04:56:55;;;;;;;25.88;17.35;;;7.90;99.90;;;;;;5015609;28;20087;-73
2021/03/07 04:59:21;;;;;;;31.58;18.65;;;7.80;99.90;;;;;;5033092;28;20040;-73
2021/03/07 05:01:47;;;;;;;28.48;18.38;;;7.80;99.90;;;;;;5033290;28;20038;-73
2021/03/07 05:04:13;;;;;;;23.67;17.55;;;7.70;99.90;;;;;;5032712;28;20041;-73
2021/03/07 05:06:40;;;;;;;32.55;19.83;;;7.80;99.90;;;;;;5032202;28;20556;-73
2021/03/07 05:09:07;;;;;;;27.27;17.63;;;7.90;99.90;;;;;;5032182;28;20060;-73
2021/03/07 05:11:34;;;;;;;30.35;18.85;;;7.80;99.90;;;;;;5033780;28;20046;-73
2021/03/07 05:14:00;;;;;;;32.63;19.88;;;7.70;99.90;;;;;;5034043;28;20072;-73
2021/03/07 05:16:28;;;;;;;34.85;21.27;;;7.80;99.90;;;;;;5034224;28;20037;-73
2021/03/07 05:18:54;;;;;;;34.40;20.70;;;7.70;99.90;;;;;;5033396;28;20029;-73
2021/03/07 05:21:20;;;;;;;34.90;20.65;;;7.70;99.90;;;;;;5034023;28;20144;-73
2021/03/07 05:23:45;;;;;;;35.33;22.42;;;7.70;99.90;;;;;;5034601;28;20076;-73
2021/03/07 05:26:11;;;;;;;37.65;22.88;;;7.70;99.90;;;;;;5034206;28;20065;-73
2021/03/07 05:28:38;;;;;;;44.30;23.40;;;7.70;99.90;;;;;;5034140;28;20072;-73
2021/03/07 05:31:04;;;;;;;39.58;24.02;;;7.80;99.90;;;;;;5034290;28;20045;-73
2021/03/07 05:33:30;;;;;;;35.92;22.27;;;7.80;99.90;;;;;;5033932;28;20037;-73
2021/03/07 05:35:56;;;;;;;39.40;22.48;;;7.80;99.90;;;;;;5036209;28;20041;-73
2021/03/07 05:38:22;;;;;;;38.85;21.70;;;7.80;99.90;;;;;;5038342;28;20380;-73
2021/03/07 05:40:48;;;;;;;42.25;23.02;;;7.80;99.90;;;;;;5037866;28;20052;-73
2021/03/07 05:43:14;;;;;;;56.38;22.15;;;7.80;99.90;;;;;;5038036;28;20071;-73
2021/03/07 05:45:40;;;;;;;67.63;24.48;;;7.70;99.90;;;;;;5037679;28;20045;-73
2021/03/07 05:48:06;;;;;;;45.70;22.25;;;7.80;99.90;;;;;;5038154;28;20342;-73
2021/03/07 05:50:32;;;;;;;62.17;26.48;;;7.70;99.90;;;;;;5019955;28;20519;-73
2021/03/07 05:52:58;;;;;;;55.63;27.25;;;7.70;99.90;;;;;;5037712;28;20041;-73
2021/03/07 05:55:29;;;;;;;44.22;23.40;;;7.80;99.90;;;;;;5036635;28;20374;-73
2021/03/07 05:57:59;;;;;;;84.67;18.93;;;7.70;99.90;;;;;;5037627;28;20042;-73
2021/03/07 06:00:28;;;;;;;47.55;18.60;;;7.70;99.90;;;;;;5037095;28;20288;-73
2021/03/07 06:02:54;;;;;;;82.10;20.55;;;7.70;99.90;;;;;;5038054;28;20056;-73
2021/03/07 06:05:20;;;;;;;33.90;17.80;;;7.70;99.90;;;;;;5037175;28;20033;-73
2021/03/07 06:07:47;;;;;;;43.88;26.30;;;7.70;99.90;;;;;;5037385;28;20131;-73
2021/03/07 06:10:20;;;;;;;40.58;21.40;;;7.70;99.90;;;;;;5037278;28;20037;-73
2021/03/07 06:13:10;;;;;;;49.60;22.27;;;7.80;99.90;;;;;;5036829;28;20038;-73
2021/03/07 06:15:42;;;;;;;53.88;23.90;;;7.80;99.90;;;;;;5037359;28;20041;-73
2021/03/07 06:18:15;;;;;;;33.20;19.83;;;7.80;99.90;;;;;;5037609;28;20050;-73
2021/03/07 06:20:42;;;;;;;35.08;19.10;;;7.80;99.90;;;;;;5037158;28;20042;-73
2021/03/07 06:23:09;;;;;;;35.75;18.80;;;7.80;99.90;;;;;;5037143;28;20051;-73
2021/03/07 06:25:49;;;;;;;24.38;15.43;;;7.80;99.90;;;;;;5037001;28;20087;-73
2021/03/07 06:28:23;;;;;;;22.25;14.63;;;8.00;99.90;;;;;;5037191;28;20091;-73
2021/03/07 06:30:49;;;;;;;45.33;23.80;;;8.00;99.90;;;;;;5036384;28;20038;-73
2021/03/07 06:33:29;;;;;;;58.75;19.08;;;8.10;99.90;;;;;;5036610;28;20427;-73
2021/03/07 06:36:18;;;;;;;55.13;20.23;;;8.00;99.90;;;;;;5036974;28;20037;-73
2021/03/07 06:38:48;;;;;;;46.05;17.85;;;8.10;99.90;;;;;;5037189;28;20037;-73
2021/03/07 06:41:21;;;;;;;28.88;13.98;;;8.20;99.90;;;;;;5036719;28;20072;-73
2021/03/07 06:43:48;;;;;;;33.67;17.90;;;8.20;99.90;;;;;;5036308;28;20539;-73
2021/03/07 06:46:32;;;;;;;31.88;17.63;;;8.30;99.90;;;;;;5035908;28;20397;-73
2021/03/07 06:48:59;;;;;;;27.27;15.73;;;8.30;99.90;;;;;;5036838;28;20132;-74
2021/03/07 06:51:31;;;;;;;49.97;18.30;;;8.30;99.90;;;;;;5036644;28;20049;-73
2021/03/07 06:53:59;;;;;;;47.85;14.23;;;8.20;99.90;;;;;;5036849;28;20037;-74
2021/03/07 06:56:44;;;;;;;21.45;12.65;;;8.50;99.90;;;;;;5035215;28;20033;-73
2021/03/07 06:59:12;;;;;;;23.73;14.55;;;8.70;99.90;;;;;;5036496;28;20037;-73
2021/03/07 07:01:39;;;;;;;20.73;13.60;;;8.70;99.90;;;;;;5036202;28;20087;-73
2021/03/07 07:04:06;;;;;;;26.25;14.63;;;8.80;99.90;;;;;;5036393;28;20116;-73
2021/03/07 07:06:32;;;;;;;31.35;16.83;;;8.80;99.90;;;;;;5036026;28;20067;-73
2021/03/07 07:09:00;;;;;;;32.03;16.50;;;8.80;99.90;;;;;;5036572;28;20041;-73
2021/03/07 07:11:27;;;;;;;29.13;16.08;;;8.80;99.90;;;;;;5036005;28;20493;-73
2021/03/07 07:13:53;;;;;;;37.53;13.48;;;8.80;99.90;;;;;;5035987;28;20041;-73
2021/03/07 07:16:20;;;;;;;22.00;12.18;;;9.00;99.90;;;;;;5036101;28;20029;-73
2021/03/07 07:18:49;;;;;;;21.90;10.98;;;9.00;99.90;;;;;;5036638;28;20045;-73
2021/03/07 07:21:18;;;;;;;26.10;12.30;;;8.90;99.90;;;;;;5035858;28;20049;-73
2021/03/07 07:23:47;;;;;;;18.55;9.70;;;9.00;99.90;;;;;;5036280;28;20045;-73
2021/03/07 07:26:13;;;;;;;20.45;9.13;;;9.00;99.90;;;;;;5035736;28;20029;-73
2021/03/07 07:28:39;;;;;;;20.15;10.85;;;8.90;99.90;;;;;;5036021;28;20042;-73
2021/03/07 07:31:12;;;;;;;22.70;11.05;;;8.90;99.90;;;;;;5035945;28;20033;-73
2021/03/07 07:33:45;;;;;;;30.25;11.63;;;8.90;99.90;;;;;;5035893;28;20041;-73
2021/03/07 07:36:20;;;;;;;23.75;11.70;;;8.90;99.90;;;;;;5035574;28;20041;-73
2021/03/07 07:38:47;;;;;;;16.85;7.38;;;9.00;99.90;;;;;;5036053;28;20037;-73
2021/03/07 07:41:36;;;;;;;24.75;11.23;;;8.90;99.90;;;;;;5035319;28;20132;-73
2021/03/07 07:44:05;;;;;;;18.17;9.52;;;8.90;99.90;;;;;;5035322;28;20041;-73
2021/03/07 07:46:32;;;;;;;17.15;9.20;;;8.80;99.90;;;;;;5035586;28;20052;-73
2021/03/07 07:49:00;;;;;;;12.95;7.90;;;8.70;99.90;;;;;;5035639;28;20077;-73
2021/03/07 07:51:39;;;;;;;13.50;8.85;;;8.70;99.90;;;;;;5035501;28;20128;-73
2021/03/07 07:54:07;;;;;;;11.23;7.15;;;8.70;99.90;;;;;;5036024;28;20041;-73
2021/03/07 07:56:35;;;;;;;8.77;4.80;;;8.70;99.90;;;;;;5035407;28;20034;-73
2021/03/07 07:59:02;;;;;;;8.32;4.32;;;8.70;99.90;;;;;;5035200;28;20045;-73
2021/03/07 08:01:57;;;;;;;9.25;4.15;;;8.60;99.90;;;;;;5034949;28;20140;-73
2021/03/07 08:04:29;;;;;;;6.03;3.60;;;8.60;99.90;;;;;;5035585;28;20100;-73
2021/03/07 08:07:02;;;;;;;3.92;2.95;;;8.40;99.90;;;;;;5035224;28;20033;-73
2021/03/07 08:09:37;;;;;;;5.47;3.10;;;8.50;99.90;;;;;;5034902;28;20065;-73
2021/03/07 08:12:40;;;;;;;4.45;2.78;;;8.40;99.90;;;;;;5034844;28;20562;-73
2021/03/07 08:15:26;;;;;;;5.07;3.40;;;8.40;99.90;;;;;;5034684;28;20577;-73
2021/03/07 08:17:53;;;;;;;4.45;3.15;;;8.50;99.90;;;;;;5023881;28;20049;-73
2021/03/07 08:20:45;;;;;;;5.55;3.08;;;8.50;99.90;;;;;;5034331;28;20535;-73
2021/03/07 08:23:19;;;;;;;3.78;2.53;;;8.60;99.90;;;;;;5011499;28;20096;-73
2021/03/07 08:25:51;;;;;;;4.22;2.17;;;8.60;99.90;;;;;;5034805;28;20042;-73
2021/03/07 08:28:29;;;;;;;2.85;2.08;;;8.50;99.90;;;;;;5034163;28;20041;-73
2021/03/07 08:30:59;;;;;;;4.80;2.10;;;8.40;99.90;;;;;;5034320;28;20500;-73
2021/03/07 08:33:29;;;;;;;4.22;2.50;;;8.40;99.90;;;;;;5034642;28;20117;-73
2021/03/07 08:36:15;;;;;;;1.88;1.65;;;8.40;99.90;;;;;;5034450;28;20068;-73
2021/03/07 08:38:54;;;;;;;3.28;1.50;;;8.30;99.90;;;;;;5034486;28;20121;-73
2021/03/07 08:41:23;;;;;;;1.98;1.40;;;8.30;99.90;;;;;;5033609;28;20152;-73
2021/03/07 08:43:57;;;;;;;1.42;1.15;;;8.30;99.90;;;;;;5034166;28;20041;-73
2021/03/07 08:46:23;;;;;;;3.53;2.85;;;8.20;99.90;;;;;;5016589;28;20064;-73
2021/03/07 08:48:52;;;;;;;3.72;3.40;;;8.20;99.90;;;;;;5034709;28;20492;-73
2021/03/07 08:51:30;;;;;;;3.10;2.80;;;8.20;99.90;;;;;;5033988;28;20041;-73
2021/03/07 08:54:05;;;;;;;3.58;1.55;;;8.20;99.90;;;;;;5034736;28;20537;-73
2021/03/07 08:56:31;;;;;;;1.77;1.08;;;8.20;99.90;;;;;;5031100;28;20118;-73
2021/03/07 08:58:57;;;;;;;1.77;1.40;;;8.20;99.90;;;;;;5032210;28;20481;-74
2021/03/07 09:01:25;;;;;;;1.38;1.20;;;8.10;99.90;;;;;;5033266;28;20068;-73
2021/03/07 09:04:00;;;;;;;2.13;1.33;;;8.00;99.90;;;;;;5034210;28;20044;-73
2021/03/07 09:06:28;;;;;;;1.52;1.42;;;8.10;99.90;;;;;;5033955;28;20206;-73
2021/03/07 09:09:05;;;;;;;2.70;1.50;;;8.10;99.90;;;;;;5034169;28;20061;-73
2021/03/07 09:11:31;;;;;;;3.90;1.98;;;8.20;99.90;;;;;;5037698;28;20045;-73
2021/03/07 09:13:57;;;;;;;2.47;1.40;;;8.20;99.90;;;;;;5038023;28;20045;-73
2021/03/07 09:16:22;;;;;;;2.53;1.23;;;8.20;99.90;;;;;;5037150;28;20123;-73
2021/03/07 09:18:48;;;;;;;1.70;1.60;;;8.30;99.90;;;;;;5038009;28;20045;-73
2021/03/07 09:21:16;;;;;;;1.17;0.95;;;8.30;99.90;;;;;;5038091;28;20132;-73
2021/03/07 09:23:47;;;;;;;1.52;0.90;;;8.40;99.90;;;;;;5037907;28;20071;-73
2021/03/07 09:26:14;;;;;;;1.95;1.55;;;8.40;99.90;;;;;;5038219;28;20033;-73
2021/03/07 09:28:48;;;;;;;2.88;1.30;;;8.40;99.90;;;;;;5037800;28;20042;-73
2021/03/07 09:31:19;;;;;;;1.50;1.02;;;8.30;99.90;;;;;;5038118;28;20033;-73
2021/03/07 09:33:55;;;;;;;1.40;1.17;;;8.30;99.90;;;;;;5037459;28;20046;-72
2021/03/07 09:36:26;;;;;;;18.05;12.10;;;8.30;99.90;;;;;;5037478;28;20491;-72
2021/03/07 09:39:04;;;;;;;3.92;2.75;;;8.40;99.90;;;;;;5037780;28;20042;-73
2021/03/07 09:41:46;;;;;;;1.92;1.40;;;8.40;99.90;;;;;;5036324;28;20052;-72
2021/03/07 09:44:13;;;;;;;1.25;1.02;;;8.60;99.90;;;;;;5035915;28;20044;-74
2021/03/07 09:46:44;;;;;;;1.50;1.20;;;8.80;99.90;;;;;;5037463;28;20103;-74
2021/03/07 09:49:15;;;;;;;3.50;2.67;;;8.70;99.90;;;;;;5036969;28;20063;-73
2021/03/07 09:51:43;;;;;;;3.50;2.08;;;8.90;99.90;;;;;;5037180;28;20126;-73
2021/03/07 09:54:13;;;;;;;1.52;1.20;;;9.00;99.90;;;;;;5019743;28;20033;-73
2021/03/07 09:56:40;;;;;;;1.42;1.27;;;8.90;99.90;;;;;;5037133;28;20582;-73
2021/03/07 09:59:18;;;;;;;1.65;0.68;;;8.80;99.90;;;;;;5035228;28;20148;-73
2021/03/07 10:01:59;;;;;;;1.13;1.02;;;8.60;99.90;;;;;;5041859;28;20496;-72
2021/03/07 10:04:44;;;;;;;1.02;0.80;;;8.50;99.90;;;;;;5056845;28;20029;-73
2021/03/07 10:07:21;;;;;;;1.95;0.93;;;8.40;99.90;;;;;;5057230;28;20043;-73
2021/03/07 10:10:01;;;;;;;3.25;2.95;;;8.40;99.90;;;;;;5052622;28;20071;-72
2021/03/07 10:12:50;;;;;;;1.60;1.13;;;8.40;99.90;;;;;;5052515;28;20033;-73
2021/03/07 10:15:28;;;;;;;0.70;0.70;;;8.30;99.90;;;;;;5039420;28;20083;-73
2021/03/07 10:17:55;;;;;;;2.97;1.20;;;8.30;99.90;;;;;;5057292;28;20477;-73
2021/03/07 10:20:21;;;;;;;1.58;1.35;;;8.40;99.90;;;;;;5056792;28;20053;-73
2021/03/07 10:22:48;;;;;;;1.40;0.98;;;8.40;99.90;;;;;;5054261;28;20129;-73
2021/03/07 10:25:25;;;;;;;4.13;1.98;;;8.40;99.90;;;;;;5055578;28;20057;-73
2021/03/07 10:27:59;;;;;;;6.07;5.45;;;8.50;99.90;;;;;;5042944;28;20053;-73
2021/03/07 10:30:38;;;;;;;3.95;3.60;;;8.30;99.90;;;;;;5035615;28;20475;-73
2021/03/07 10:33:15;;;;;;;10.45;9.38;;;8.30;99.90;;;;;;5034975;28;20045;-73
2021/03/07 10:36:04;;;;;;;3.30;3.00;;;8.40;99.90;;;;;;5016051;28;20040;-73
2021/03/07 10:38:33;;;;;;;2.72;2.53;;;8.40;99.90;;;;;;5024144;28;20508;-73
2021/03/07 10:40:59;;;;;;;7.60;1.42;;;8.50;99.90;;;;;;5035276;28;20412;-73
2021/03/07 10:43:27;;;;;;;1.48;1.30;;;8.40;99.90;;;;;;5035317;28;20041;-73
2021/03/07 10:45:53;;;;;;;2.85;1.60;;;8.40;99.90;;;;;;5018165;28;20072;-73
2021/03/07 10:48:19;;;;;;;3.30;1.60;;;8.30;99.90;;;;;;5035425;28;20029;-73
2021/03/07 10:50:49;;;;;;;3.67;3.00;;;8.30;99.90;;;;;;5035758;28;20048;-73
2021/03/07 10:53:18;;;;;;;6.32;4.03;;;8.20;99.90;;;;;;5035725;28;20116;-73
2021/03/07 10:55:50;;;;;;;5.50;4.95;;;8.30;99.90;;;;;;5034514;28;20045;-73
2021/03/07 10:58:17;;;;;;;3.78;3.35;;;8.30;99.90;;;;;;5034460;28;20191;-74
2021/03/07 11:00:43;;;;;;;1.60;1.30;;;8.40;99.90;;;;;;5035168;28;20385;-73
2021/03/07 11:03:11;;;;;;;1.88;1.50;;;8.40;99.90;;;;;;5016800;28;20045;-73
2021/03/07 11:05:37;;;;;;;2.78;1.75;;;8.50;99.90;;;;;;5034754;28;20037;-73
2021/03/07 11:08:03;;;;;;;1.33;1.23;;;8.40;99.90;;;;;;5035208;28;20059;-73
2021/03/07 11:10:29;;;;;;;3.15;1.48;;;8.30;99.90;;;;;;5034950;28;20048;-73
2021/03/07 11:12:55;;;;;;;2.03;1.40;;;8.30;99.90;;;;;;5033621;28;20049;-73
2021/03/07 11:15:21;;;;;;;1.70;1.60;;;8.40;99.90;;;;;;5034931;28;20029;-73
2021/03/07 11:17:47;;;;;;;1.50;1.40;;;8.50;99.90;;;;;;5034405;28;20037;-73
2021/03/07 11:20:13;;;;;;;1.58;1.48;;;8.80;99.90;;;;;;5034874;28;20049;-73
2021/03/07 11:22:40;;;;;;;2.10;1.48;;;9.00;99.90;;;;;;5034984;28;20041;-73
2021/03/07 11:25:06;;;;;;;2.35;1.38;;;9.00;99.90;;;;;;5034033;28;20125;-73
2021/03/07 11:27:32;;;;;;;2.10;1.90;;;9.50;99.90;;;;;;5014395;28;20128;-73
2021/03/07 11:29:58;;;;;;;3.35;2.13;;;9.30;99.90;;;;;;5033133;28;20045;-73
2021/03/07 11:32:24;;;;;;;2.22;1.63;;;9.40;99.90;;;;;;5033135;28;20045;-73
2021/03/07 11:34:51;;;;;;;2.38;1.00;;;9.50;99.90;;;;;;5034587;28;20595;-73
2021/03/07 11:37:17;;;;;;;1.83;1.10;;;9.30;99.90;;;;;;5034102;28;20047;-73
2021/03/07 11:39:43;;;;;;;1.35;1.17;;;9.10;99.90;;;;;;5046651;28;20147;-73
2021/03/07 11:42:10;;;;;;;2.20;1.38;;;9.00;99.90;;;;;;5053857;28;20572;-73
2021/03/07 11:44:36;;;;;;;1.25;1.08;;;9.00;99.90;;;;;;5038600;28;20038;-72
2021/03/07 11:47:02;;;;;;;1.33;0.80;;;9.10;99.90;;;;;;5054657;28;20048;-73
2021/03/07 11:49:28;;;;;;;3.20;1.38;;;9.20;99.90;;;;;;5041371;28;20571;-74
2021/03/07 11:51:54;;;;;;;1.33;1.15;;;9.00;99.90;;;;;;5034959;28;20072;-72
2021/03/07 11:54:20;;;;;;;1.10;1.00;;;8.80;99.90;;;;;;5034724;28;20041;-72
2021/03/07 11:56:46;;;;;;;1.10;0.80;;;9.00;99.90;;;;;;5035007;28;20044;-72
2021/03/07 11:59:11;;;;;;;1.13;1.00;;;9.00;99.90;;;;;;5033860;28;20088;-72
2021/03/07 12:01:37;;;;;;;2.20;1.10;;;9.10;99.90;;;;;;5052941;28;20076;-73
2021/03/07 12:04:03;;;;;;;1.23;1.02;;;9.10;99.90;;;;;;5042276;28;20033;-72
2021/03/07 12:06:29;;;;;;;0.95;0.80;;;9.20;99.90;;;;;;5053449;28;20044;-73
2021/03/07 12:08:55;;;;;;;1.08;0.98;;;9.20;99.90;;;;;;5031451;28;20406;-73
2021/03/07 12:11:21;;;;;;;1.90;1.00;;;9.20;99.90;;;;;;5033872;28;20092;-73
2021/03/07 12:13:48;;;;;;;1.17;1.00;;;9.20;99.90;;;;;;5034272;28;20053;-73
2021/03/07 12:16:14;;;;;;;1.02;0.98;;;9.40;99.90;;;;;;5034447;28;20041;-73
2021/03/07 12:18:41;;;;;;;1.77;1.10;;;9.40;99.90;;;;;;5034563;28;20120;-75
2021/03/07 12:21:08;;;;;;;4.13;3.83;;;9.40;99.90;;;;;;5034243;28;20124;-72
2021/03/07 12:23:35;;;;;;;2.17;1.98;;;9.50;99.90;;;;;;5034330;28;20064;-73
2021/03/07 12:26:01;;;;;;;2.00;1.73;;;9.80;99.90;;;;;;5034298;28;20037;-73
2021/03/07 12:28:27;;;;;;;5.78;3.75;;;9.90;99.90;;;;;;5034452;28;20045;-73
2021/03/07 12:30:53;;;;;;;2.40;2.00;;;10.10;99.90;;;;;;5034439;28;20045;-73
2021/03/07 12:33:19;;;;;;;5.53;3.90;;;10.30;99.90;;;;;;5034305;28;20542;-73
2021/03/07 12:35:45;;;;;;;3.08;2.58;;;10.40;99.90;;;;;;5049759;28;20037;-73
2021/03/07 12:38:11;;;;;;;6.90;6.25;;;10.20;99.90;;;;;;5034634;28;20099;-73
2021/03/07 12:40:40;;;;;;;2.63;2.40;;;10.40;99.90;;;;;;5034256;28;20049;-73
2021/03/07 12:43:06;;;;;;;2.33;2.10;;;10.60;99.90;;;;;;5034210;28;20485;-73
2021/03/07 12:45:32;;;;;;;4.68;3.08;;;10.40;99.90;;;;;;5033330;28;20045;-73
2021/03/07 12:47:57;;;;;;;2.10;1.30;;;10.50;99.90;;;;;;5033603;28;20041;-74
2021/03/07 12:50:23;;;;;;;3.10;2.17;;;10.70;99.90;;;;;;5034043;28;20501;-74
2021/03/07 12:52:49;;;;;;;2.47;2.28;;;10.20;99.90;;;;;;5034223;28;20592;-73
2021/03/07 12:55:19;;;;;;;3.17;2.03;;;10.10;99.90;;;;;;5033653;28;20041;-74